Time;durP1;ratioP1;P1;durP2;ratioP2;P2;SDS_P1;SDS_P2;PMS_P1;PMS_P2;Temp;Humidity;BMP_temperature;BMP_pressure;BME280_temperature;BME280_humidity;BME280_pressure;Samples;Min_cycle;Max_cycle;Signal;HPM_P1;HPM_P2
2022/05/02 00:01:32;;;;;;;13.98;10.93;;;26.70;99.90;;;;;;5073158;28;20031;-69
2022/05/02 00:03:59;;;;;;;15.13;10.50;;;26.70;99.90;;;;;;5064258;28;20028;-70
2022/05/02 00:06:25;;;;;;;14.18;10.13;;;26.80;99.90;;;;;;5073291;28;20032;-70
2022/05/02 00:08:52;;;;;;;13.27;10.55;;;26.80;99.90;;;;;;5070834;28;20400;-71
2022/05/02 00:11:19;;;;;;;15.30;10.60;;;26.80;99.90;;;;;;5053904;28;20041;-69
2022/05/02 00:13:45;;;;;;;17.60;10.00;;;26.90;99.90;;;;;;5073243;28;20021;-71
2022/05/02 00:16:12;;;;;;;10.02;9.02;;;26.90;99.90;;;;;;5073411;28;20055;-71
2022/05/02 00:18:39;;;;;;;13.35;9.52;;;26.90;99.90;;;;;;5073425;28;20012;-72
2022/05/02 00:21:06;;;;;;;12.63;9.05;;;27.00;99.90;;;;;;5072600;28;20044;-70
2022/05/02 00:23:33;;;;;;;10.20;8.60;;;26.90;99.90;;;;;;5072681;28;20032;-70
2022/05/02 00:26:00;;;;;;;11.45;9.05;;;26.90;99.90;;;;;;5076179;28;20025;-70
2022/05/02 00:28:27;;;;;;;12.70;9.65;;;27.00;99.90;;;;;;5072212;28;20024;-68
2022/05/02 00:30:53;;;;;;;12.05;7.55;;;27.10;99.90;;;;;;5072808;28;20024;-73
2022/05/02 00:33:20;;;;;;;9.55;5.68;;;27.10;99.90;;;;;;5072380;28;20020;-74
2022/05/02 00:35:47;;;;;;;6.70;5.85;;;27.20;99.90;;;;;;5072373;28;20070;-73
2022/05/02 00:38:14;;;;;;;8.65;5.57;;;27.20;99.90;;;;;;5072544;28;20017;-72
2022/05/02 00:40:41;;;;;;;10.00;6.30;;;27.30;99.90;;;;;;5072557;28;20039;-72
2022/05/02 00:43:07;;;;;;;9.00;6.30;;;27.40;99.90;;;;;;5071905;28;20020;-72
2022/05/02 00:45:37;;;;;;;7.75;6.20;;;27.40;99.90;;;;;;5071548;28;20523;-70
2022/05/02 00:48:04;;;;;;;8.95;6.88;;;27.40;99.90;;;;;;5066084;28;20082;-68
2022/05/02 00:50:32;;;;;;;7.75;5.68;;;27.50;99.90;;;;;;5060705;28;20017;-74
2022/05/02 00:53:01;;;;;;;5.40;4.75;;;27.50;99.90;;;;;;5069291;28;20044;-70
2022/05/02 00:55:30;;;;;;;7.32;4.90;;;27.50;99.90;;;;;;5068286;28;20380;-71
2022/05/02 00:57:59;;;;;;;10.02;5.30;;;27.60;99.90;;;;;;5073089;28;20028;-70
2022/05/02 01:00:28;;;;;;;6.32;5.03;;;27.60;99.90;;;;;;5072224;28;20024;-71
2022/05/02 01:02:55;;;;;;;8.13;4.15;;;27.60;99.90;;;;;;5071344;28;20055;-66
2022/05/02 01:05:22;;;;;;;5.93;3.03;;;27.50;99.90;;;;;;5073726;28;20024;-69
2022/05/02 01:07:49;;;;;;;3.75;3.30;;;27.50;99.90;;;;;;5072243;28;20025;-68
2022/05/02 01:10:19;;;;;;;6.70;4.80;;;27.50;99.90;;;;;;5072563;28;20035;-67
2022/05/02 01:12:47;;;;;;;6.22;4.28;;;27.60;99.90;;;;;;5072394;28;20063;-66
2022/05/02 01:15:16;;;;;;;5.07;2.95;;;27.50;99.90;;;;;;5072575;28;20028;-67
2022/05/02 01:17:44;;;;;;;8.60;4.55;;;27.50;99.90;;;;;;5062578;28;20052;-63
2022/05/02 01:20:12;;;;;;;8.85;3.80;;;27.60;99.90;;;;;;5067226;28;20111;-68
2022/05/02 01:22:38;;;;;;;6.88;3.13;;;27.70;99.90;;;;;;5072053;28;20074;-64
2022/05/02 01:25:05;;;;;;;11.30;3.40;;;27.70;99.90;;;;;;5070702;28;20035;-64
2022/05/02 01:27:32;;;;;;;5.82;2.97;;;27.70;99.90;;;;;;5072471;28;20039;-64
2022/05/02 01:29:59;;;;;;;3.67;3.03;;;27.70;99.90;;;;;;5068270;28;20111;-66
2022/05/02 01:32:25;;;;;;;14.50;8.85;;;27.80;99.90;;;;;;5071141;28;20025;-65
2022/05/02 01:34:52;;;;;;;10.07;3.65;;;27.90;99.90;;;;;;5073568;28;20476;-66
2022/05/02 01:37:19;;;;;;;4.28;2.85;;;28.10;99.90;;;;;;5072797;28;20017;-67
2022/05/02 01:39:45;;;;;;;5.10;3.00;;;28.10;99.90;;;;;;5073375;28;20020;-68
2022/05/02 01:42:13;;;;;;;4.40;3.30;;;28.20;99.90;;;;;;5073591;28;20073;-74
2022/05/02 01:44:40;;;;;;;80.97;68.35;;;28.30;99.90;;;;;;5073057;28;20036;-67
2022/05/02 01:47:08;;;;;;;47.13;37.75;;;28.40;99.90;;;;;;5072558;28;20028;-65
2022/05/02 01:49:36;;;;;;;81.05;59.35;;;28.50;99.90;;;;;;5072053;28;20028;-67
2022/05/02 01:52:03;;;;;;;23.48;17.75;;;28.50;99.90;;;;;;5075009;28;20074;-66
2022/05/02 01:54:29;;;;;;;2.75;2.10;;;28.50;99.90;;;;;;5074276;28;20044;-67
2022/05/02 01:56:56;;;;;;;56.83;48.58;;;28.50;99.90;;;;;;5075726;28;20032;-66
2022/05/02 01:59:23;;;;;;;9.75;7.47;;;28.50;99.90;;;;;;5072263;28;20031;-66
2022/05/02 02:01:50;;;;;;;5.90;4.20;;;28.50;99.90;;;;;;5073721;28;20035;-67
2022/05/02 02:06:47;;;;;;;5.25;2.42;;;28.70;99.90;;;;;;5071327;28;20434;-65
2022/05/02 02:09:14;;;;;;;3.30;1.75;;;28.70;99.90;;;;;;5074486;28;20481;-66
2022/05/02 02:11:40;;;;;;;2.17;1.77;;;28.80;99.90;;;;;;5075058;28;20033;-67
2022/05/02 02:14:07;;;;;;;8.43;1.73;;;28.80;99.90;;;;;;5071100;28;20029;-66
2022/05/02 02:16:34;;;;;;;1.77;1.42;;;28.70;99.90;;;;;;5072739;28;20032;-69
2022/05/02 02:19:00;;;;;;;9.07;1.73;;;28.80;99.90;;;;;;5075003;28;20342;-67
2022/05/02 02:21:27;;;;;;;5.20;1.70;;;28.90;99.90;;;;;;5072502;28;20082;-69
2022/05/02 02:23:54;;;;;;;5.13;1.50;;;28.80;99.90;;;;;;5074859;28;20036;-68
2022/05/02 02:26:21;;;;;;;3.35;1.55;;;28.90;99.90;;;;;;5074117;28;20039;-69
2022/05/02 02:28:47;;;;;;;5.75;1.85;;;29.00;99.90;;;;;;5073709;28;20441;-67
2022/05/02 02:31:14;;;;;;;3.60;1.77;;;29.10;99.90;;;;;;5074709;28;20090;-68
2022/05/02 02:33:41;;;;;;;2.80;1.48;;;29.20;99.90;;;;;;5074594;28;20125;-68
2022/05/02 02:36:08;;;;;;;15.10;2.85;;;29.20;99.90;;;;;;5073916;28;20095;-69
2022/05/02 02:38:34;;;;;;;4.45;1.90;;;29.30;99.90;;;;;;5072664;28;20202;-69
2022/05/02 02:41:01;;;;;;;4.70;2.00;;;29.40;99.90;;;;;;5074969;28;20036;-70
2022/05/02 02:43:28;;;;;;;4.30;1.70;;;29.40;99.90;;;;;;5068980;28;20036;-67
2022/05/02 02:45:54;;;;;;;3.97;1.65;;;29.50;99.90;;;;;;5073204;28;20032;-69
2022/05/02 02:48:21;;;;;;;4.43;1.80;;;29.50;99.90;;;;;;5074515;28;20032;-64
2022/05/02 02:50:48;;;;;;;5.22;1.50;;;29.50;99.90;;;;;;5072047;28;20413;-68
2022/05/02 02:53:14;;;;;;;5.03;2.05;;;29.70;99.90;;;;;;5073496;28;20147;-67
2022/05/02 02:55:41;;;;;;;11.15;8.27;;;29.80;99.90;;;;;;5073670;28;20052;-67
2022/05/02 02:58:08;;;;;;;3.55;1.88;;;30.00;99.90;;;;;;5070024;28;20059;-65
2022/05/02 03:00:34;;;;;;;5.70;2.03;;;30.00;99.90;;;;;;5071575;28;20500;-70
2022/05/02 03:03:01;;;;;;;3.53;1.52;;;30.20;99.90;;;;;;5074083;28;20044;-68
2022/05/02 03:08:07;;;;;;;3.80;1.80;;;30.20;99.90;;;;;;5074817;28;20504;-67
2022/05/02 03:10:34;;;;;;;2.40;1.38;;;30.40;99.90;;;;;;5074987;28;20103;-66
2022/05/02 03:13:00;;;;;;;4.10;1.65;;;30.30;99.90;;;;;;5073989;28;20033;-68
2022/05/02 03:15:27;;;;;;;36.42;29.38;;;30.40;99.90;;;;;;5071086;28;20029;-70
2022/05/02 03:17:54;;;;;;;18.33;13.75;;;30.40;99.90;;;;;;5064020;28;20029;-67
2022/05/02 03:20:20;;;;;;;83.15;66.40;;;30.50;99.90;;;;;;5073325;28;20049;-69
2022/05/02 03:22:48;;;;;;;62.03;50.70;;;30.60;99.90;;;;;;5074309;28;20032;-67
2022/05/02 03:25:15;;;;;;;4.47;2.97;;;30.70;99.90;;;;;;5074521;28;20033;-68
2022/05/02 03:27:42;;;;;;;6.20;3.42;;;30.60;99.90;;;;;;5074416;28;20053;-67
2022/05/02 03:30:09;;;;;;;2.10;1.40;;;30.60;99.90;;;;;;5073265;28;20045;-69
2022/05/02 03:32:35;;;;;;;2.15;1.50;;;30.70;99.90;;;;;;5074019;28;20041;-68
2022/05/02 03:35:02;;;;;;;3.15;1.80;;;30.70;99.90;;;;;;5074743;28;20029;-71
2022/05/02 03:37:29;;;;;;;2.90;1.42;;;30.70;99.90;;;;;;5072239;28;20496;-67
2022/05/02 03:39:55;;;;;;;4.50;1.33;;;30.80;99.90;;;;;;5074751;28;20028;-67
2022/05/02 03:42:22;;;;;;;3.22;1.95;;;30.80;99.90;;;;;;5073946;28;20396;-68
2022/05/02 03:44:49;;;;;;;4.75;1.23;;;30.90;99.90;;;;;;5071231;28;20032;-66
2022/05/02 03:47:15;;;;;;;3.80;1.08;;;31.00;99.90;;;;;;5057427;28;20119;-67
2022/05/02 03:49:43;;;;;;;1.90;0.80;;;31.10;99.90;;;;;;5065727;28;20032;-68
2022/05/02 03:52:10;;;;;;;19.42;15.15;;;31.00;99.90;;;;;;5073333;28;20043;-65
2022/05/02 03:54:36;;;;;;;43.72;34.90;;;31.20;99.90;;;;;;5084043;28;20024;-67
2022/05/02 03:57:03;;;;;;;14.30;10.15;;;31.20;99.90;;;;;;5054253;28;20032;-65
2022/05/02 03:59:30;;;;;;;30.83;26.65;;;31.30;99.90;;;;;;5062608;28;20103;-65
2022/05/02 04:01:57;;;;;;;5.40;4.43;;;31.40;99.90;;;;;;5072299;28;20028;-65
2022/05/02 04:04:23;;;;;;;1.60;1.27;;;31.60;99.90;;;;;;5070754;28;20029;-66
2022/05/02 04:06:50;;;;;;;2.10;1.48;;;31.50;99.90;;;;;;5073289;28;20036;-65
2022/05/02 04:09:17;;;;;;;1.73;0.85;;;31.50;99.20;;;;;;5072050;28;20024;-66
2022/05/02 04:11:44;;;;;;;80.20;71.60;;;31.60;98.50;;;;;;5073536;28;20085;-66
2022/05/02 04:14:10;;;;;;;9.43;7.60;;;31.60;99.60;;;;;;5072339;28;20496;-64
2022/05/02 04:16:37;;;;;;;1.92;1.10;;;31.60;99.90;;;;;;5074343;28;20035;-64
2022/05/02 04:19:04;;;;;;;1.77;1.20;;;31.60;97.90;;;;;;5074092;28;20582;-65
2022/05/02 04:21:30;;;;;;;3.00;2.00;;;31.80;97.10;;;;;;5077883;28;20046;-68
2022/05/02 04:23:57;;;;;;;2.25;1.65;;;31.80;97.60;;;;;;5078508;28;20032;-65
2022/05/02 04:26:24;;;;;;;1.73;1.10;;;31.70;97.20;;;;;;5063464;28;20027;-66
2022/05/02 04:28:51;;;;;;;2.67;1.50;;;31.90;96.50;;;;;;5073375;28;20025;-65
2022/05/02 04:31:17;;;;;;;5.07;1.35;;;31.90;95.90;;;;;;5073429;28;20052;-64
2022/05/02 04:33:45;;;;;;;3.50;1.27;;;32.00;96.50;;;;;;5073409;28;20462;-66
2022/05/02 04:36:12;;;;;;;4.30;1.50;;;32.00;96.00;;;;;;5068735;28;20047;-65
2022/05/02 04:38:39;;;;;;;2.17;1.10;;;32.10;95.40;;;;;;5073649;28;20025;-66
2022/05/02 04:41:05;;;;;;;4.15;1.65;;;32.10;95.90;;;;;;5064586;28;20025;-66
2022/05/02 04:43:32;;;;;;;2.17;1.60;;;32.20;96.10;;;;;;5053259;28;20545;-69
2022/05/02 04:45:59;;;;;;;3.75;1.48;;;32.40;96.30;;;;;;5071735;28;20374;-72
2022/05/02 04:48:26;;;;;;;2.75;0.82;;;32.40;95.50;;;;;;5073344;28;20580;-67
2022/05/02 04:50:52;;;;;;;2.58;1.20;;;32.40;95.10;;;;;;5072089;28;20144;-65
2022/05/02 04:53:19;;;;;;;1.38;1.27;;;32.40;95.90;;;;;;5059247;28;20080;-65
2022/05/02 04:55:46;;;;;;;5.22;1.38;;;32.50;95.60;;;;;;5053916;28;20029;-68
2022/05/02 04:58:12;;;;;;;1.83;1.40;;;32.60;95.90;;;;;;5053055;28;20025;-65
2022/05/02 05:00:39;;;;;;;3.40;1.40;;;32.70;95.80;;;;;;5053842;28;20029;-67
2022/05/02 05:03:06;;;;;;;3.72;2.20;;;32.60;95.10;;;;;;5072033;28;20112;-67
2022/05/02 05:05:33;;;;;;;13.20;4.22;;;32.60;94.90;;;;;;5069951;28;20032;-69
2022/05/02 05:08:00;;;;;;;3.60;1.20;;;32.60;94.60;;;;;;5056295;28;20083;-66
2022/05/02 05:10:26;;;;;;;4.25;1.20;;;32.60;94.40;;;;;;5058451;28;20036;-63
2022/05/02 05:13:06;;;;;;;3.38;1.10;;;32.80;93.70;;;;;;5056990;28;20086;-65
2022/05/02 05:18:32;;;;;;;2.63;1.55;;;32.80;94.00;;;;;;5056903;28;20036;-68
2022/05/02 05:21:04;;;;;;;3.05;1.98;;;32.70;93.50;;;;;;5058733;28;20017;-65
2022/05/02 05:23:40;;;;;;;4.30;1.02;;;32.80;93.40;;;;;;5076764;28;20576;-68
2022/05/02 05:26:30;;;;;;;2.30;1.40;;;32.90;94.00;;;;;;5076064;28;20025;-67
2022/05/02 05:29:14;;;;;;;2.40;1.60;;;32.80;94.80;;;;;;5056343;28;20080;-62
2022/05/02 05:31:41;;;;;;;5.43;2.42;;;32.80;93.60;;;;;;5075068;28;20485;-65
2022/05/02 05:34:30;;;;;;;2.28;1.10;;;32.90;94.30;;;;;;5076137;28;20016;-67
2022/05/02 05:37:21;;;;;;;7.47;1.92;;;33.00;93.80;;;;;;5066619;28;20426;-68
2022/05/02 05:39:59;;;;;;;3.33;1.48;;;33.10;93.50;;;;;;5072291;28;20086;-65
2022/05/02 05:42:49;;;;;;;5.05;2.83;;;33.30;92.50;;;;;;5075206;28;20033;-66
2022/05/02 05:45:27;;;;;;;5.28;2.88;;;33.40;92.60;;;;;;5071276;28;20115;-64
2022/05/02 05:48:16;;;;;;;3.15;1.80;;;33.50;92.70;;;;;;5076128;28;20059;-66
2022/05/02 05:50:49;;;;;;;3.20;1.83;;;33.40;92.90;;;;;;5074920;28;20029;-65
2022/05/02 05:53:24;;;;;;;4.55;1.60;;;33.40;93.00;;;;;;5075690;28;20044;-64
2022/05/02 05:55:54;;;;;;;5.03;1.75;;;33.40;93.20;;;;;;5072853;28;20388;-64
2022/05/02 05:58:33;;;;;;;2.80;1.75;;;33.50;93.20;;;;;;5074947;28;20017;-66
2022/05/02 06:01:11;;;;;;;4.85;2.15;;;33.60;91.50;;;;;;5074101;28;20078;-64
2022/05/02 06:03:51;;;;;;;5.25;1.98;;;33.70;90.60;;;;;;5074781;28;20407;-64
2022/05/02 06:06:18;;;;;;;2.92;1.77;;;33.60;90.70;;;;;;5074764;28;20086;-63
2022/05/02 06:08:46;;;;;;;3.78;1.50;;;33.60;90.90;;;;;;5076001;28;20025;-64
2022/05/02 06:11:16;;;;;;;2.20;1.40;;;33.60;91.20;;;;;;5074683;28;20137;-64
2022/05/02 06:13:45;;;;;;;69.05;59.05;;;33.70;91.70;;;;;;5075916;28;20033;-65
2022/05/02 06:18:53;;;;;;;5.40;3.22;;;33.80;91.80;;;;;;5054857;28;20025;-65
2022/05/02 06:21:23;;;;;;;4.30;2.85;;;34.00;91.00;;;;;;5071181;28;20362;-65
2022/05/02 06:23:52;;;;;;;13.68;11.77;;;34.10;90.60;;;;;;5074771;28;20370;-64
2022/05/02 06:26:23;;;;;;;13.20;10.27;;;33.80;90.90;;;;;;5076034;28;20033;-63
2022/05/02 06:28:52;;;;;;;14.60;12.50;;;33.60;90.80;;;;;;5073360;28;20112;-66
2022/05/02 06:31:24;;;;;;;9.48;6.30;;;33.60;91.90;;;;;;5067020;28;20033;-65
2022/05/02 06:33:51;;;;;;;14.45;13.02;;;33.60;92.40;;;;;;5076053;28;20070;-68
2022/05/02 06:36:24;;;;;;;23.77;17.92;;;33.80;91.90;;;;;;5095018;28;20416;-65
2022/05/02 06:39:07;;;;;;;7.00;5.53;;;33.90;91.60;;;;;;5096028;28;20484;-67
2022/05/02 06:41:57;;;;;;;5.82;5.22;;;33.90;91.00;;;;;;5061361;28;20033;-67
2022/05/02 06:44:42;;;;;;;11.85;6.30;;;33.90;91.30;;;;;;5061074;28;20056;-68
2022/05/02 06:47:24;;;;;;;12.85;5.07;;;33.90;91.30;;;;;;5074260;28;20273;-63
2022/05/02 06:49:56;;;;;;;8.53;5.60;;;33.80;91.10;;;;;;5064987;28;20032;-65
2022/05/02 06:52:29;;;;;;;7.88;5.82;;;33.90;90.60;;;;;;5074252;28;20546;-67
2022/05/02 06:55:15;;;;;;;6.13;5.35;;;33.80;90.00;;;;;;5073994;28;20048;-66
2022/05/02 06:58:02;;;;;;;11.50;6.50;;;33.80;90.10;;;;;;5072209;28;20040;-65
2022/05/02 07:00:39;;;;;;;10.50;6.57;;;33.80;89.80;;;;;;5072357;28;20067;-70
2022/05/02 07:03:13;;;;;;;10.25;6.72;;;33.70;90.00;;;;;;5072405;28;20029;-66
2022/05/02 07:05:55;;;;;;;8.07;6.40;;;33.60;90.40;;;;;;5066764;28;20024;-66
2022/05/02 07:08:29;;;;;;;9.80;7.32;;;33.60;90.10;;;;;;5070436;28;20767;-64
2022/05/02 07:11:09;;;;;;;11.52;8.15;;;33.60;89.00;;;;;;5071954;28;20135;-64
2022/05/02 07:14:05;;;;;;;10.05;7.55;;;33.60;90.10;;;;;;5072501;28;21412;-64
2022/05/02 07:16:32;;;;;;;7.90;7.10;;;33.60;89.40;;;;;;5070890;28;20094;-64
2022/05/02 07:19:10;;;;;;;7.53;6.38;;;33.60;88.00;;;;;;5077442;28;20024;-64
2022/05/02 07:21:46;;;;;;;10.35;7.20;;;33.60;87.90;;;;;;5069257;28;20363;-64
2022/05/02 07:24:36;;;;;;;9.95;7.63;;;33.70;90.00;;;;;;5069897;28;20028;-65
2022/05/02 07:27:14;;;;;;;10.75;7.75;;;33.70;87.20;;;;;;5069134;28;20028;-66
2022/05/02 07:29:43;;;;;;;19.58;8.00;;;33.70;88.40;;;;;;5085581;28;20219;-65
2022/05/02 07:32:11;;;;;;;8.10;7.10;;;33.80;86.90;;;;;;5067324;28;20096;-63
2022/05/02 07:34:41;;;;;;;8.05;7.30;;;33.70;84.70;;;;;;5090906;28;20102;-63
2022/05/02 07:37:12;;;;;;;7.82;7.05;;;33.70;85.10;;;;;;5094572;28;20020;-62
2022/05/02 07:39:41;;;;;;;8.77;7.25;;;33.80;85.50;;;;;;5085748;28;20043;-62
2022/05/02 07:42:10;;;;;;;9.65;7.28;;;33.70;85.70;;;;;;5065783;28;20025;-63
2022/05/02 07:44:38;;;;;;;9.48;7.18;;;33.80;87.00;;;;;;5074367;28;20056;-63
2022/05/02 07:47:07;;;;;;;9.15;7.43;;;33.80;87.10;;;;;;5088230;28;20032;-65
2022/05/02 07:49:34;;;;;;;8.80;7.75;;;33.80;88.60;;;;;;5071215;28;20492;-62
2022/05/02 07:52:02;;;;;;;8.57;7.68;;;33.80;85.90;;;;;;5073105;28;20020;-63
2022/05/02 07:54:31;;;;;;;9.65;7.88;;;33.80;84.50;;;;;;5072778;28;20039;-61
2022/05/02 07:57:00;;;;;;;10.48;7.93;;;33.70;86.80;;;;;;5056682;28;20028;-64
2022/05/02 07:59:35;;;;;;;12.52;7.90;;;33.70;88.40;;;;;;5071686;28;20039;-63
2022/05/02 08:02:03;;;;;;;10.45;8.60;;;33.80;89.10;;;;;;5071894;28;20028;-64
2022/05/02 08:04:30;;;;;;;12.80;8.63;;;33.80;89.00;;;;;;5072649;28;20037;-62
2022/05/02 08:07:11;;;;;;;10.18;7.57;;;33.80;88.90;;;;;;5072394;28;20028;-62
2022/05/02 08:09:59;;;;;;;13.63;8.30;;;33.80;86.20;;;;;;5069765;28;20073;-63
2022/05/02 08:12:40;;;;;;;13.48;8.75;;;33.80;87.20;;;;;;5070064;28;20040;-64
2022/05/02 08:15:17;;;;;;;72.95;60.60;;;33.80;85.50;;;;;;5070231;28;20066;-61
2022/05/02 08:17:55;;;;;;;14.20;12.75;;;33.80;85.80;;;;;;5070675;28;20078;-61
2022/05/02 08:20:36;;;;;;;239.43;194.57;;;33.80;86.60;;;;;;5071568;28;20035;-63
2022/05/02 08:29:16;;;;;;;12.25;10.32;;;33.80;87.50;;;;;;5071426;28;20044;-63
2022/05/02 08:32:14;;;;;;;14.90;10.45;;;33.70;87.80;;;;;;5070963;28;20086;-62
2022/05/02 08:34:40;;;;;;;11.60;10.32;;;33.50;89.00;;;;;;5071351;28;20166;-64
2022/05/02 08:37:15;;;;;;;10.85;9.75;;;33.40;88.60;;;;;;5072933;28;20027;-64
2022/05/02 08:39:58;;;;;;;11.40;10.00;;;33.20;88.80;;;;;;5071319;28;20047;-62
2022/05/02 08:42:28;;;;;;;14.52;10.93;;;33.20;89.80;;;;;;5071155;28;20066;-62
2022/05/02 08:45:07;;;;;;;17.40;11.23;;;33.20;90.00;;;;;;5076727;28;20016;-62
2022/05/02 08:47:45;;;;;;;12.48;10.45;;;33.20;90.20;;;;;;5075896;28;20284;-62
2022/05/02 08:50:18;;;;;;;11.70;10.60;;;33.20;88.40;;;;;;5075292;28;20431;-63
2022/05/02 08:52:59;;;;;;;11.45;10.25;;;33.20;87.10;;;;;;5074791;28;20531;-64
2022/05/02 08:55:40;;;;;;;11.63;9.35;;;33.10;87.50;;;;;;5092866;28;20041;-61
2022/05/02 08:58:19;;;;;;;12.63;9.73;;;33.20;88.20;;;;;;5077536;28;20051;-61
2022/05/02 09:01:08;;;;;;;11.13;10.02;;;33.10;87.30;;;;;;5063406;28;20112;-62
2022/05/02 09:03:58;;;;;;;13.68;11.05;;;33.00;88.40;;;;;;5061221;28;20025;-61
2022/05/02 09:06:48;;;;;;;15.77;10.75;;;33.00;88.70;;;;;;5059008;28;20174;-65
2022/05/02 09:09:26;;;;;;;12.82;11.32;;;33.00;89.80;;;;;;5068675;28;20093;-62
2022/05/02 09:12:07;;;;;;;13.05;11.68;;;32.90;89.40;;;;;;5073447;28;20128;-63
2022/05/02 09:14:40;;;;;;;13.77;11.57;;;32.90;89.70;;;;;;5072081;28;20013;-62
2022/05/02 09:17:22;;;;;;;13.23;11.82;;;32.90;90.00;;;;;;5082879;28;20464;-61
2022/05/02 09:20:00;;;;;;;;;;;32.90;89.90;;;;;;5075609;28;20024;-64
2022/05/02 09:22:49;;;;;;;15.07;13.50;;;32.80;89.40;;;;;;5076187;28;19908;-67
2022/05/02 09:25:35;;;;;;;14.40;12.52;;;32.80;89.90;;;;;;5075286;28;20048;-65
2022/05/02 09:28:23;;;;;;;20.67;18.48;;;32.90;90.80;;;;;;5076162;28;20021;-68
2022/05/02 09:31:02;;;;;;;136.13;106.70;;;32.90;89.90;;;;;;5074659;28;20085;-68
2022/05/02 09:33:43;;;;;;;99.72;80.63;;;32.90;90.50;;;;;;5073638;28;20021;-67
2022/05/02 09:36:21;;;;;;;28.58;20.52;;;32.80;91.20;;;;;;5072269;28;20024;-66
2022/05/02 09:38:51;;;;;;;18.38;12.82;;;32.70;91.90;;;;;;5074731;28;20020;-68
2022/05/02 09:41:38;;;;;;;13.00;11.70;;;32.50;92.10;;;;;;5073070;28;20021;-66
2022/05/02 09:50:11;;;;;;;17.70;13.82;;;32.00;93.80;;;;;;5074091;28;20077;-63
2022/05/02 09:53:01;;;;;;;16.15;12.40;;;31.90;94.50;;;;;;5073943;28;20036;-60
2022/05/02 09:58:37;;;;;;;19.85;8.57;;;31.80;94.70;;;;;;5071925;28;20380;-62
2022/05/02 10:01:27;;;;;;;13.52;8.35;;;31.70;95.10;;;;;;5071627;28;20021;-62
2022/05/02 10:04:18;;;;;;;11.50;8.60;;;31.70;95.20;;;;;;5074539;28;20013;-62
2022/05/02 10:07:07;;;;;;;15.13;8.43;;;31.60;95.10;;;;;;5071964;28;20529;-62
2022/05/02 10:09:46;;;;;;;15.25;8.50;;;31.50;95.50;;;;;;5071173;28;20033;-65
2022/05/02 10:12:25;;;;;;;13.48;9.85;;;31.40;95.80;;;;;;5074861;28;20027;-62
2022/05/02 10:15:04;;;;;;;13.45;9.05;;;31.40;96.20;;;;;;5073524;28;20053;-63
2022/05/02 10:17:31;;;;;;;13.38;8.35;;;31.40;96.40;;;;;;5073143;28;20024;-64
2022/05/02 10:20:15;;;;;;;11.35;7.32;;;31.40;96.60;;;;;;5074019;28;20079;-61
2022/05/02 10:23:16;;;;;;;10.25;5.95;;;31.30;96.20;;;;;;5073987;28;20024;-61
2022/05/02 10:26:01;;;;;;;12.73;5.80;;;31.10;96.60;;;;;;5075528;28;20032;-62
2022/05/02 10:28:32;;;;;;;9.30;5.35;;;31.00;96.80;;;;;;5075431;28;20077;-65
2022/05/02 10:31:03;;;;;;;7.67;5.13;;;30.80;97.10;;;;;;5075339;28;20028;-62
2022/05/02 10:33:36;;;;;;;10.52;6.07;;;30.80;98.00;;;;;;5075159;28;20033;-62
2022/05/02 10:36:06;;;;;;;8.90;5.72;;;30.90;97.50;;;;;;5075339;28;20025;-64
2022/05/02 10:38:43;;;;;;;14.50;6.82;;;30.70;98.00;;;;;;5075281;28;20066;-65
2022/05/02 10:41:19;;;;;;;9.85;5.88;;;30.60;98.10;;;;;;5075088;28;20469;-62
2022/05/02 10:43:50;;;;;;;10.27;6.70;;;30.50;98.50;;;;;;5075208;28;20472;-62
2022/05/02 10:46:20;;;;;;;12.20;7.53;;;30.50;98.60;;;;;;5075003;28;20021;-62
2022/05/02 10:49:04;;;;;;;19.20;8.43;;;30.60;99.00;;;;;;5075126;28;20029;-62
2022/05/02 10:51:40;;;;;;;11.07;7.15;;;30.60;98.90;;;;;;5074789;28;20032;-63
2022/05/02 10:54:27;;;;;;;18.05;9.05;;;30.50;99.00;;;;;;5074549;28;20052;-63
2022/05/02 10:57:05;;;;;;;14.40;8.98;;;30.40;99.40;;;;;;5074498;28;20567;-62
2022/05/02 10:59:38;;;;;;;20.33;12.43;;;30.50;99.50;;;;;;5074873;28;20059;-63
2022/05/02 11:02:29;;;;;;;16.73;9.38;;;30.50;99.80;;;;;;5074634;28;20049;-64
2022/05/02 11:05:01;;;;;;;17.77;9.93;;;30.40;99.70;;;;;;5074326;28;20384;-64
2022/05/02 11:07:38;;;;;;;13.07;8.32;;;30.40;99.80;;;;;;5074730;28;20033;-64
2022/05/02 11:10:10;;;;;;;18.45;8.70;;;30.40;99.90;;;;;;5074690;28;20025;-63
2022/05/02 11:12:59;;;;;;;32.70;23.58;;;30.30;99.90;;;;;;5074265;28;20082;-62
2022/05/02 11:15:34;;;;;;;16.05;9.82;;;30.10;99.90;;;;;;5074659;28;20033;-63
2022/05/02 11:21:13;;;;;;;12.13;8.13;;;30.20;99.90;;;;;;5074070;28;20103;-62
2022/05/02 11:23:49;;;;;;;14.57;7.80;;;30.10;99.90;;;;;;5074441;28;20032;-64
2022/05/02 11:26:32;;;;;;;11.02;6.07;;;30.00;99.90;;;;;;5073802;28;20496;-64
2022/05/02 11:29:11;;;;;;;13.65;6.18;;;30.00;99.90;;;;;;5074157;28;20479;-63
2022/05/02 11:31:52;;;;;;;8.77;6.18;;;29.90;99.90;;;;;;5074228;28;20040;-62
2022/05/02 11:34:26;;;;;;;14.43;7.25;;;29.90;99.90;;;;;;5074181;28;20099;-62
2022/05/02 11:36:55;;;;;;;16.63;8.85;;;29.90;99.90;;;;;;5074078;28;20107;-62
2022/05/02 11:39:44;;;;;;;12.05;6.50;;;29.80;99.90;;;;;;5074113;28;20107;-62
2022/05/02 11:42:15;;;;;;;10.38;6.28;;;29.80;99.90;;;;;;5074190;28;20107;-64
2022/05/02 11:44:59;;;;;;;12.65;7.00;;;29.90;99.90;;;;;;5074053;28;20029;-62
2022/05/02 11:47:52;;;;;;;12.35;6.13;;;29.80;99.90;;;;;;5073962;28;20040;-62
2022/05/02 11:50:24;;;;;;;14.73;5.85;;;29.70;99.90;;;;;;5073684;28;20035;-63
2022/05/02 11:52:57;;;;;;;11.93;6.22;;;29.70;99.90;;;;;;5073636;28;20036;-62
2022/05/02 11:55:34;;;;;;;8.60;5.53;;;29.70;99.90;;;;;;5073853;28;20035;-62
2022/05/02 11:58:08;;;;;;;14.35;5.82;;;29.70;99.90;;;;;;5073867;28;20029;-62
2022/05/02 12:00:37;;;;;;;13.80;5.97;;;29.70;99.90;;;;;;5073676;28;20020;-63
2022/05/02 12:03:09;;;;;;;12.10;5.20;;;29.70;99.90;;;;;;5073566;28;20086;-62
2022/05/02 12:05:43;;;;;;;11.57;5.57;;;29.60;99.90;;;;;;5073574;28;20028;-62
2022/05/02 12:08:21;;;;;;;11.43;6.03;;;29.60;99.90;;;;;;5073524;28;20029;-61
2022/05/02 12:10:48;;;;;;;11.32;6.43;;;29.50;99.90;;;;;;5073624;28;20024;-63
2022/05/02 12:13:20;;;;;;;22.95;7.03;;;29.50;99.90;;;;;;5073312;28;20035;-63
2022/05/02 12:16:08;;;;;;;9.63;5.72;;;29.50;99.90;;;;;;5072999;28;20151;-62
2022/05/02 12:18:54;;;;;;;12.32;5.90;;;29.50;99.90;;;;;;5073391;28;20031;-61
2022/05/02 12:21:38;;;;;;;12.40;6.50;;;29.50;99.90;;;;;;5073640;28;20493;-61
2022/05/02 12:24:07;;;;;;;12.63;7.18;;;29.60;99.90;;;;;;5073225;28;20346;-61
2022/05/02 12:26:42;;;;;;;16.60;7.03;;;29.60;99.90;;;;;;5073438;28;20469;-61
2022/05/02 12:29:18;;;;;;;13.55;7.15;;;29.70;99.90;;;;;;5073409;28;20032;-61
2022/05/02 12:31:58;;;;;;;12.93;7.13;;;29.60;99.90;;;;;;5073273;28;20024;-62
2022/05/02 12:34:35;;;;;;;13.00;7.55;;;29.50;99.90;;;;;;5073809;28;20029;-63
2022/05/02 12:37:10;;;;;;;13.07;6.55;;;29.50;99.90;;;;;;5073375;28;20029;-66
2022/05/02 12:39:47;;;;;;;12.32;6.55;;;29.40;99.90;;;;;;5073366;28;20033;-63
2022/05/02 12:42:18;;;;;;;15.73;6.68;;;29.30;99.90;;;;;;5073267;28;20037;-63
2022/05/02 12:44:52;;;;;;;13.55;7.57;;;29.40;99.90;;;;;;5073339;28;20029;-63
2022/05/02 12:47:23;;;;;;;20.65;9.63;;;29.30;99.90;;;;;;5073090;28;20480;-62
2022/05/02 12:50:04;;;;;;;13.55;6.80;;;29.20;99.90;;;;;;5073213;28;20146;-63
2022/05/02 12:52:32;;;;;;;10.18;6.53;;;29.20;99.90;;;;;;5072921;28;20532;-63
2022/05/02 12:55:00;;;;;;;14.05;6.97;;;29.20;99.90;;;;;;5073135;28;20032;-62
2022/05/02 13:00:32;;;;;;;12.18;6.10;;;29.10;99.90;;;;;;5072910;28;20078;-62
2022/05/02 13:03:15;;;;;;;12.43;7.43;;;29.10;99.90;;;;;;5072934;28;20036;-63
2022/05/02 13:06:05;;;;;;;16.10;8.48;;;29.10;99.90;;;;;;5073123;28;20063;-65
2022/05/02 13:08:39;;;;;;;12.82;7.72;;;29.10;99.90;;;;;;5073117;28;20029;-63
2022/05/02 13:11:11;;;;;;;13.27;7.65;;;29.20;99.90;;;;;;5073100;28;20025;-62
2022/05/02 13:13:45;;;;;;;11.60;7.03;;;29.20;99.90;;;;;;5072815;28;20029;-62
2022/05/02 13:16:15;;;;;;;16.85;7.63;;;29.20;99.90;;;;;;5072935;28;20154;-63
2022/05/02 13:18:47;;;;;;;15.02;7.38;;;29.20;99.90;;;;;;5072873;28;20029;-63
2022/05/02 13:21:15;;;;;;;13.48;7.30;;;29.20;99.90;;;;;;5072712;28;20373;-62
2022/05/02 13:23:44;;;;;;;12.98;6.07;;;29.20;99.90;;;;;;5072954;28;20526;-62
2022/05/02 13:26:31;;;;;;;13.90;6.38;;;29.10;99.90;;;;;;5072801;28;20032;-64
2022/05/02 13:29:10;;;;;;;13.02;6.30;;;29.10;99.90;;;;;;5075568;28;20017;-64
2022/05/02 13:31:53;;;;;;;12.98;6.32;;;29.10;99.90;;;;;;5076158;28;20503;-60
2022/05/02 13:34:36;;;;;;;15.43;8.65;;;29.10;99.90;;;;;;5076539;28;20032;-65
2022/05/02 13:37:08;;;;;;;11.05;6.65;;;29.20;99.90;;;;;;5076688;28;20032;-63
2022/05/02 13:40:04;;;;;;;15.10;5.50;;;29.20;99.90;;;;;;5076469;28;20044;-63
2022/05/02 13:43:02;;;;;;;11.50;6.00;;;29.10;99.90;;;;;;5076349;28;20291;-63